Time;durP1;ratioP1;P1;durP2;ratioP2;P2;SDS_P1;SDS_P2;PMS_P1;PMS_P2;Temp;Humidity;BMP_temperature;BMP_pressure;BME280_temperature;BME280_humidity;BME280_pressure;Samples;Min_cycle;Max_cycle;Signal;HPM_P1;HPM_P2
2023/10/27 00:01:51;;;;;;;11.70;4.07;;;;;;;;;;4995892;28;20186;-84
2023/10/27 00:04:17;;;;;;;8.40;3.13;;;;;;;;;;4994364;28;20710;-84
2023/10/27 00:06:44;;;;;;;11.83;4.13;;;;;;;;;;5010242;28;20307;-84
2023/10/27 00:09:10;;;;;;;14.77;5.13;;;;;;;;;;5011992;28;20276;-84
2023/10/27 00:11:36;;;;;;;15.53;5.40;;;;;;;;;;5010076;28;20191;-84
2023/10/27 00:14:05;;;;;;;19.03;6.73;;;;;;;;;;5010940;28;20183;-84
2023/10/27 00:16:31;;;;;;;18.13;7.60;;;;;;;;;;5010238;28;20282;-84
2023/10/27 00:18:57;;;;;;;25.53;10.97;;;;;;;;;;5032159;28;20195;-84
2023/10/27 00:21:24;;;;;;;24.77;11.63;;;;;;;;;;5018115;28;20233;-84
2023/10/27 00:23:50;;;;;;;28.60;12.10;;;;;;;;;;4993773;28;20282;-84
2023/10/27 00:26:16;;;;;;;24.13;10.57;;;;;;;;;;4994762;28;20187;-84
2023/10/27 00:28:47;;;;;;;18.70;7.73;;;;;;;;;;4992428;28;20261;-84
2023/10/27 00:31:14;;;;;;;39.00;15.83;;;;;;;;;;4975870;28;20567;-84
2023/10/27 00:33:40;;;;;;;23.17;10.13;;;;;;;;;;5008310;28;20663;-83
2023/10/27 00:36:06;;;;;;;25.57;10.17;;;;;;;;;;5010523;28;20179;-84
2023/10/27 00:38:32;;;;;;;15.03;5.30;;;;;;;;;;4979081;28;20218;-83
2023/10/27 00:40:58;;;;;;;17.20;5.73;;;;;;;;;;5010728;28;20195;-84
2023/10/27 00:43:25;;;;;;;13.73;4.60;;;;;;;;;;4994329;28;20187;-84
2023/10/27 00:45:52;;;;;;;10.17;3.83;;;;;;;;;;5010313;28;20230;-84
2023/10/27 00:48:18;;;;;;;13.93;5.77;;;;;;;;;;4976748;28;20635;-84
2023/10/27 00:50:47;;;;;;;17.53;7.33;;;;;;;;;;5011234;28;20283;-84
2023/10/27 00:53:14;;;;;;;13.23;5.23;;;;;;;;;;5010942;28;20588;-83
2023/10/27 00:55:41;;;;;;;19.07;7.50;;;;;;;;;;4994657;28;21901;-84
2023/10/27 00:58:10;;;;;;;15.33;5.67;;;;;;;;;;4990747;28;20302;-85
2023/10/27 01:00:36;;;;;;;13.30;4.33;;;;;;;;;;4993965;28;20195;-84
2023/10/27 01:03:03;;;;;;;14.23;4.20;;;;;;;;;;5010003;28;20186;-83
2023/10/27 01:05:29;;;;;;;12.13;3.83;;;;;;;;;;5010020;28;20594;-85
2023/10/27 01:07:56;;;;;;;13.03;4.70;;;;;;;;;;5007751;28;20186;-84
2023/10/27 01:10:22;;;;;;;15.17;6.27;;;;;;;;;;4983920;28;20207;-84
2023/10/27 01:12:50;;;;;;;16.17;6.40;;;;;;;;;;5004964;28;20635;-84
2023/10/27 01:15:16;;;;;;;15.90;6.03;;;;;;;;;;4992739;28;20211;-84
2023/10/27 01:17:43;;;;;;;16.13;6.50;;;;;;;;;;5009895;28;20317;-84
2023/10/27 01:20:09;;;;;;;14.97;5.70;;;;;;;;;;5009698;28;20199;-84
2023/10/27 01:22:42;;;;;;;12.47;5.00;;;;;;;;;;4995369;28;20190;-85
2023/10/27 01:25:09;;;;;;;16.33;5.73;;;;;;;;;;5009402;28;20207;-84
2023/10/27 01:27:36;;;;;;;14.07;6.03;;;;;;;;;;4994735;28;20210;-85
2023/10/27 01:30:02;;;;;;;19.77;7.97;;;;;;;;;;4994462;28;20218;-83
2023/10/27 01:32:28;;;;;;;14.97;5.77;;;;;;;;;;5010303;28;20203;-84
2023/10/27 01:34:54;;;;;;;19.83;7.50;;;;;;;;;;5011158;28;20661;-84
2023/10/27 01:37:20;;;;;;;16.50;6.67;;;;;;;;;;5011261;28;20214;-84
2023/10/27 01:39:48;;;;;;;15.20;6.50;;;;;;;;;;5010253;28;20199;-84
2023/10/27 01:42:14;;;;;;;15.10;5.97;;;;;;;;;;4996963;28;20245;-84
2023/10/27 01:44:40;;;;;;;12.37;5.43;;;;;;;;;;4978098;28;20214;-83
2023/10/27 01:47:06;;;;;;;13.87;5.37;;;;;;;;;;4994009;28;20263;-83
2023/10/27 01:49:32;;;;;;;16.73;5.97;;;;;;;;;;5008910;28;20218;-83
2023/10/27 01:51:59;;;;;;;13.93;4.97;;;;;;;;;;5022960;28;20738;-84
2023/10/27 01:54:25;;;;;;;13.37;5.37;;;;;;;;;;4983971;28;20197;-84
2023/10/27 01:56:52;;;;;;;13.13;5.80;;;;;;;;;;5011411;28;20207;-84
2023/10/27 01:59:18;;;;;;;15.97;5.83;;;;;;;;;;5008271;28;20682;-84
2023/10/27 02:01:44;;;;;;;10.07;5.60;;;;;;;;;;5000422;28;20191;-84
2023/10/27 02:04:10;;;;;;;22.20;8.43;;;;;;;;;;5010757;28;20215;-84
2023/10/27 02:06:36;;;;;;;18.00;7.77;;;;;;;;;;5009888;28;20254;-84
2023/10/27 02:09:02;;;;;;;13.53;6.90;;;;;;;;;;5012384;28;20210;-84
2023/10/27 02:11:29;;;;;;;17.37;6.97;;;;;;;;;;4998050;28;20191;-84
2023/10/27 02:13:55;;;;;;;14.80;6.63;;;;;;;;;;4997917;28;20191;-84
2023/10/27 02:16:21;;;;;;;18.07;6.23;;;;;;;;;;4996356;28;20577;-84
2023/10/27 02:18:47;;;;;;;12.63;5.87;;;;;;;;;;4977670;28;20191;-84
2023/10/27 02:21:13;;;;;;;12.90;6.03;;;;;;;;;;4998015;28;20278;-84
2023/10/27 02:23:40;;;;;;;16.67;6.80;;;;;;;;;;5012380;28;20651;-84
2023/10/27 02:26:06;;;;;;;13.43;5.70;;;;;;;;;;4996168;28;20198;-85
2023/10/27 02:28:32;;;;;;;16.00;6.07;;;;;;;;;;4994928;28;20191;-84
2023/10/27 02:30:58;;;;;;;16.33;5.53;;;;;;;;;;5012043;28;20210;-83
2023/10/27 02:33:24;;;;;;;12.27;5.80;;;;;;;;;;4992411;28;20249;-84
2023/10/27 02:35:50;;;;;;;11.60;5.27;;;;;;;;;;4982160;28;20187;-84
2023/10/27 02:38:17;;;;;;;14.57;5.60;;;;;;;;;;4996958;28;20293;-84
2023/10/27 02:40:43;;;;;;;16.30;6.57;;;;;;;;;;5014935;28;20286;-84
2023/10/27 02:43:11;;;;;;;11.40;5.43;;;;;;;;;;5014237;28;20243;-83
2023/10/27 02:45:37;;;;;;;14.13;5.53;;;;;;;;;;5011697;28;20179;-84
2023/10/27 02:48:04;;;;;;;15.77;5.47;;;;;;;;;;5013878;28;20206;-84
2023/10/27 02:50:31;;;;;;;10.87;4.73;;;;;;;;;;4981497;28;20219;-84
2023/10/27 02:52:57;;;;;;;13.17;4.97;;;;;;;;;;5014635;28;20183;-84
2023/10/27 02:55:23;;;;;;;24.20;8.87;;;;;;;;;;5004138;28;20256;-84
2023/10/27 02:57:50;;;;;;;19.40;6.87;;;;;;;;;;4997829;28;20641;-83
2023/10/27 03:00:16;;;;;;;12.73;5.00;;;;;;;;;;4981184;28;20291;-84
2023/10/27 03:02:42;;;;;;;12.87;4.80;;;;;;;;;;5012987;28;20218;-84
2023/10/27 03:05:08;;;;;;;9.90;4.57;;;;;;;;;;4997676;28;20237;-83
2023/10/27 03:07:35;;;;;;;11.23;4.10;;;;;;;;;;5013229;28;20218;-84
2023/10/27 03:10:01;;;;;;;10.93;4.37;;;;;;;;;;4997495;28;20251;-83
2023/10/27 03:12:28;;;;;;;10.63;4.73;;;;;;;;;;5011578;28;20183;-84
2023/10/27 03:14:54;;;;;;;10.20;4.27;;;;;;;;;;4997068;28;20184;-84
2023/10/27 03:17:20;;;;;;;9.43;3.93;;;;;;;;;;5013131;28;20628;-83
2023/10/27 03:19:46;;;;;;;11.40;4.30;;;;;;;;;;4996888;28;20210;-83
2023/10/27 03:22:13;;;;;;;10.00;4.27;;;;;;;;;;4997605;28;20244;-84
2023/10/27 03:24:39;;;;;;;10.87;4.57;;;;;;;;;;5011522;28;20178;-83
2023/10/27 03:27:05;;;;;;;11.47;4.77;;;;;;;;;;4993746;28;20191;-83
2023/10/27 03:29:32;;;;;;;9.93;4.00;;;;;;;;;;5008015;28;20215;-84
2023/10/27 03:31:58;;;;;;;10.00;4.37;;;;;;;;;;4996779;28;20623;-84
2023/10/27 03:34:24;;;;;;;13.63;4.23;;;;;;;;;;5013059;28;20190;-84
2023/10/27 03:36:50;;;;;;;7.77;3.63;;;;;;;;;;4990330;28;20220;-84
2023/10/27 03:39:16;;;;;;;9.03;3.70;;;;;;;;;;5024510;28;20287;-84
2023/10/27 03:41:42;;;;;;;9.20;3.50;;;;;;;;;;4996209;28;20607;-83
2023/10/27 03:44:10;;;;;;;12.83;4.20;;;;;;;;;;5012121;28;20198;-84
2023/10/27 03:46:37;;;;;;;10.83;4.40;;;;;;;;;;4994855;28;20183;-83
2023/10/27 03:49:03;;;;;;;10.27;4.70;;;;;;;;;;4995812;28;20239;-84
2023/10/27 03:51:31;;;;;;;11.23;4.80;;;;;;;;;;4994636;28;20715;-84
2023/10/27 03:53:57;;;;;;;12.53;4.50;;;;;;;;;;4996523;28;20262;-84
2023/10/27 03:56:23;;;;;;;9.90;4.10;;;;;;;;;;5010656;28;20198;-84
2023/10/27 03:58:49;;;;;;;9.53;3.50;;;;;;;;;;4977544;28;20185;-84
2023/10/27 04:01:16;;;;;;;15.07;5.50;;;;;;;;;;4994951;28;20179;-83
2023/10/27 04:03:42;;;;;;;11.67;4.30;;;;;;;;;;5010070;28;20198;-84
2023/10/27 04:06:08;;;;;;;8.17;3.40;;;;;;;;;;5012491;28;20198;-84
2023/10/27 04:08:34;;;;;;;7.43;3.23;;;;;;;;;;5011404;28;20262;-83
2023/10/27 04:11:00;;;;;;;12.20;3.90;;;;;;;;;;4978634;28;20211;-83
2023/10/27 04:13:26;;;;;;;9.60;3.83;;;;;;;;;;5014441;28;20193;-84
2023/10/27 04:15:53;;;;;;;9.50;3.97;;;;;;;;;;5012262;28;20287;-84
2023/10/27 04:18:19;;;;;;;10.27;4.53;;;;;;;;;;4978554;28;20291;-84
2023/10/27 04:20:46;;;;;;;14.67;7.07;;;;;;;;;;4996444;28;20209;-83
2023/10/27 04:23:13;;;;;;;12.40;5.07;;;;;;;;;;5012994;28;20254;-85
2023/10/27 04:25:39;;;;;;;9.50;4.20;;;;;;;;;;5014097;28;20662;-83
2023/10/27 04:28:06;;;;;;;7.33;3.47;;;;;;;;;;4995541;28;20183;-84
2023/10/27 04:30:33;;;;;;;14.87;5.10;;;;;;;;;;5010589;28;20210;-84
2023/10/27 04:33:00;;;;;;;6.90;3.90;;;;;;;;;;5027980;28;20607;-83
2023/10/27 04:35:26;;;;;;;9.63;4.30;;;;;;;;;;4978819;28;20195;-85
2023/10/27 04:37:53;;;;;;;12.97;5.80;;;;;;;;;;5012357;28;20282;-83
2023/10/27 04:40:19;;;;;;;11.43;5.40;;;;;;;;;;4997087;28;20227;-84
2023/10/27 04:42:46;;;;;;;8.80;4.67;;;;;;;;;;5007375;28;20546;-84
2023/10/27 04:45:12;;;;;;;8.10;3.97;;;;;;;;;;5007385;28;20252;-84
2023/10/27 04:47:38;;;;;;;5.77;3.47;;;;;;;;;;5011905;28;20270;-83
2023/10/27 04:50:05;;;;;;;6.27;3.60;;;;;;;;;;4996715;28;20215;-84
2023/10/27 04:52:31;;;;;;;6.60;3.20;;;;;;;;;;5006835;28;20264;-84
2023/10/27 04:54:58;;;;;;;6.67;3.30;;;;;;;;;;5005641;28;20562;-84
2023/10/27 04:57:24;;;;;;;8.07;3.80;;;;;;;;;;5014129;28;20218;-84
2023/10/27 04:59:50;;;;;;;7.47;3.23;;;;;;;;;;5011294;28;20266;-84
2023/10/27 05:02:16;;;;;;;5.20;3.33;;;;;;;;;;5010934;28;20194;-84
2023/10/27 05:04:42;;;;;;;5.27;3.30;;;;;;;;;;5009896;28;20190;-85
2023/10/27 05:07:10;;;;;;;8.50;3.80;;;;;;;;;;5010807;28;20202;-84
2023/10/27 05:09:36;;;;;;;7.17;3.83;;;;;;;;;;5009458;28;20208;-82
2023/10/27 05:12:02;;;;;;;5.43;4.07;;;;;;;;;;5010239;28;20187;-81
2023/10/27 05:14:29;;;;;;;7.13;3.90;;;;;;;;;;5009231;28;20227;-81
2023/10/27 05:16:55;;;;;;;9.97;4.60;;;;;;;;;;5009206;28;20207;-83
2023/10/27 05:19:21;;;;;;;7.63;4.13;;;;;;;;;;4993998;28;20594;-83
2023/10/27 05:21:47;;;;;;;7.53;3.90;;;;;;;;;;4993476;28;20552;-83
2023/10/27 05:24:13;;;;;;;6.13;3.63;;;;;;;;;;5003245;28;20190;-83
2023/10/27 05:26:39;;;;;;;5.20;3.40;;;;;;;;;;5007731;28;20187;-82
2023/10/27 05:29:05;;;;;;;5.23;3.50;;;;;;;;;;5009917;28;20202;-83
2023/10/27 05:31:32;;;;;;;7.07;3.50;;;;;;;;;;4991496;28;20184;-83
2023/10/27 05:33:58;;;;;;;6.47;3.47;;;;;;;;;;5009698;28;20190;-83
2023/10/27 05:36:24;;;;;;;8.50;4.17;;;;;;;;;;5007915;28;20191;-83
2023/10/27 05:38:50;;;;;;;12.77;7.80;;;;;;;;;;4991706;28;20257;-83
2023/10/27 05:41:16;;;;;;;9.17;5.63;;;;;;;;;;5008959;28;20254;-83
2023/10/27 05:43:42;;;;;;;6.97;4.60;;;;;;;;;;4993695;28;20187;-83
2023/10/27 05:46:09;;;;;;;10.13;5.47;;;;;;;;;;5005128;28;20182;-83
2023/10/27 05:48:36;;;;;;;8.07;4.50;;;;;;;;;;5007942;28;20441;-81
2023/10/27 05:51:03;;;;;;;6.73;4.10;;;;;;;;;;4991860;28;20227;-81
2023/10/27 05:53:29;;;;;;;8.90;5.57;;;;;;;;;;4991523;28;20930;-82
2023/10/27 05:55:55;;;;;;;8.43;5.23;;;;;;;;;;5011123;28;20323;-81
2023/10/27 05:58:21;;;;;;;7.13;4.43;;;;;;;;;;5010742;28;20207;-81
2023/10/27 06:00:48;;;;;;;9.70;4.53;;;;;;;;;;4987895;28;20690;-81
2023/10/27 06:03:14;;;;;;;8.10;4.70;;;;;;;;;;5007716;28;20190;-81
2023/10/27 06:05:40;;;;;;;11.40;6.13;;;;;;;;;;5008097;28;20190;-82
2023/10/27 06:08:07;;;;;;;6.83;4.57;;;;;;;;;;5002800;28;20213;-81
2023/10/27 06:10:33;;;;;;;7.53;4.50;;;;;;;;;;4987203;28;20203;-81
2023/10/27 06:12:59;;;;;;;9.47;5.63;;;;;;;;;;5006239;28;20650;-81
2023/10/27 06:15:25;;;;;;;9.47;5.10;;;;;;;;;;5005731;28;20233;-81
2023/10/27 06:17:52;;;;;;;7.83;4.43;;;;;;;;;;5006615;28;20203;-81
2023/10/27 06:20:18;;;;;;;6.23;4.20;;;;;;;;;;5007321;28;20207;-81
2023/10/27 06:22:45;;;;;;;7.27;4.23;;;;;;;;;;5008315;28;20195;-81
2023/10/27 06:25:11;;;;;;;5.50;4.40;;;;;;;;;;4975015;28;20219;-81
2023/10/27 06:27:37;;;;;;;8.80;5.20;;;;;;;;;;5009846;28;20205;-81
2023/10/27 06:30:04;;;;;;;9.43;5.30;;;;;;;;;;4998577;28;20211;-80
2023/10/27 06:32:30;;;;;;;6.83;3.87;;;;;;;;;;4997098;28;20228;-81
2023/10/27 06:34:56;;;;;;;6.37;3.87;;;;;;;;;;4999333;28;20237;-81
2023/10/27 06:37:23;;;;;;;5.20;3.10;;;;;;;;;;5011347;28;20321;-81
2023/10/27 06:39:50;;;;;;;4.23;3.00;;;;;;;;;;5010473;28;20673;-81
2023/10/27 06:42:17;;;;;;;3.90;2.60;;;;;;;;;;4993402;28;20188;-80
2023/10/27 06:44:44;;;;;;;4.17;2.60;;;;;;;;;;4994940;28;20802;-81
2023/10/27 06:47:10;;;;;;;3.47;2.60;;;;;;;;;;4994810;28;20197;-81
2023/10/27 06:49:36;;;;;;;34.30;23.27;;;;;;;;;;4993886;28;20371;-81
2023/10/27 06:52:02;;;;;;;16.10;10.50;;;;;;;;;;5011609;28;20183;-81
2023/10/27 06:54:28;;;;;;;4.13;3.30;;;;;;;;;;4992439;28;20690;-81
2023/10/27 06:56:54;;;;;;;5.10;3.10;;;;;;;;;;4976244;28;20265;-81
2023/10/27 06:59:21;;;;;;;3.47;2.73;;;;;;;;;;5009429;28;20207;-81
2023/10/27 07:01:48;;;;;;;2.60;2.30;;;;;;;;;;4994382;28;20687;-81
2023/10/27 07:04:15;;;;;;;5.73;2.80;;;;;;;;;;5010444;28;20183;-81
2023/10/27 07:06:41;;;;;;;4.17;2.23;;;;;;;;;;5009462;28;20210;-81
2023/10/27 07:09:07;;;;;;;2.40;2.03;;;;;;;;;;5009494;28;20747;-81
2023/10/27 07:11:33;;;;;;;2.77;2.10;;;;;;;;;;4995162;28;20250;-81
2023/10/27 07:13:59;;;;;;;3.23;1.73;;;;;;;;;;5000720;28;20186;-81
2023/10/27 07:16:25;;;;;;;3.27;1.90;;;;;;;;;;4993823;28;20289;-81
2023/10/27 07:18:51;;;;;;;2.50;1.80;;;;;;;;;;5004173;28;20587;-81
2023/10/27 07:21:17;;;;;;;2.73;1.60;;;;;;;;;;5011808;28;20225;-81
2023/10/27 07:23:44;;;;;;;2.70;1.70;;;;;;;;;;5013259;28;20179;-81
2023/10/27 07:26:13;;;;;;;1.93;1.60;;;;;;;;;;4997545;28;20175;-81
2023/10/27 07:28:40;;;;;;;2.13;1.53;;;;;;;;;;5003013;28;20183;-81
2023/10/27 07:31:07;;;;;;;4.13;1.70;;;;;;;;;;5008457;28;20187;-81
2023/10/27 07:33:33;;;;;;;3.33;1.73;;;;;;;;;;5011952;28;20218;-81
2023/10/27 07:36:02;;;;;;;4.53;1.90;;;;;;;;;;5012431;28;20211;-81
2023/10/27 07:38:28;;;;;;;4.43;2.20;;;;;;;;;;4993520;28;20215;-81
2023/10/27 07:40:57;;;;;;;4.60;2.00;;;;;;;;;;5012431;28;20204;-81
2023/10/27 07:43:24;;;;;;;3.30;1.60;;;;;;;;;;4995858;28;20664;-81
2023/10/27 07:45:50;;;;;;;2.93;1.90;;;;;;;;;;5012938;28;20208;-81
2023/10/27 07:48:17;;;;;;;2.90;1.73;;;;;;;;;;5012017;28;20194;-81
2023/10/27 07:50:43;;;;;;;3.47;1.90;;;;;;;;;;5010991;28;20675;-81
2023/10/27 07:53:09;;;;;;;3.77;1.80;;;;;;;;;;4996063;28;20187;-81
2023/10/27 07:55:36;;;;;;;2.13;1.63;;;;;;;;;;5011806;28;20214;-81
2023/10/27 07:58:04;;;;;;;3.70;1.80;;;;;;;;;;5012454;28;20210;-81
2023/10/27 08:00:33;;;;;;;3.87;1.87;;;;;;;;;;5013049;28;20211;-81
2023/10/27 08:02:59;;;;;;;1.83;1.60;;;;;;;;;;5012916;28;20179;-81
2023/10/27 08:05:25;;;;;;;3.40;1.80;;;;;;;;;;4994421;28;20194;-81
2023/10/27 08:07:52;;;;;;;2.73;1.70;;;;;;;;;;5013106;28;20187;-80
2023/10/27 08:10:20;;;;;;;2.40;1.93;;;;;;;;;;5015295;28;20218;-81
2023/10/27 08:12:46;;;;;;;2.37;1.63;;;;;;;;;;5015434;28;20194;-81
2023/10/27 08:15:13;;;;;;;2.83;1.60;;;;;;;;;;5015929;28;20241;-80
2023/10/27 08:17:39;;;;;;;3.53;1.80;;;;;;;;;;5013771;28;20211;-81
2023/10/27 08:20:06;;;;;;;2.77;1.70;;;;;;;;;;5014264;28;20235;-81
2023/10/27 08:22:33;;;;;;;2.30;1.57;;;;;;;;;;4998720;28;20192;-81
2023/10/27 08:24:59;;;;;;;2.20;1.50;;;;;;;;;;5016448;28;20175;-81
2023/10/27 08:27:25;;;;;;;3.70;1.27;;;;;;;;;;5015828;28;20195;-81
2023/10/27 08:29:55;;;;;;;1.50;1.10;;;;;;;;;;5011121;28;20249;-81
2023/10/27 08:32:21;;;;;;;1.70;1.17;;;;;;;;;;5011943;28;20179;-80
2023/10/27 08:34:48;;;;;;;1.40;1.30;;;;;;;;;;4995663;28;20191;-79
2023/10/27 08:37:16;;;;;;;2.80;1.10;;;;;;;;;;5008340;28;20336;-79
2023/10/27 08:39:42;;;;;;;2.00;1.17;;;;;;;;;;5010421;28;20204;-83
2023/10/27 08:42:10;;;;;;;1.63;1.20;;;;;;;;;;5015214;28;20198;-82
2023/10/27 08:44:37;;;;;;;2.03;1.03;;;;;;;;;;5012385;28;20196;-80
2023/10/27 08:47:06;;;;;;;2.00;1.20;;;;;;;;;;5010303;28;20253;-81
2023/10/27 08:49:33;;;;;;;1.33;1.07;;;;;;;;;;5010753;28;20227;-82
2023/10/27 08:52:00;;;;;;;4.67;1.23;;;;;;;;;;4998955;28;20195;-82
2023/10/27 08:54:26;;;;;;;0.90;0.90;;;;;;;;;;5016846;28;20191;-81
2023/10/27 08:56:52;;;;;;;2.70;1.03;;;;;;;;;;5013811;28;20198;-82
2023/10/27 08:59:18;;;;;;;1.17;1.07;;;;;;;;;;5010210;28;20199;-81
2023/10/27 09:01:45;;;;;;;1.50;1.00;;;;;;;;;;5012635;28;20183;-81
2023/10/27 09:04:12;;;;;;;2.83;1.00;;;;;;;;;;5000224;28;20203;-81
2023/10/27 09:06:39;;;;;;;1.23;0.97;;;;;;;;;;5012992;28;20592;-81
2023/10/27 09:09:06;;;;;;;2.27;1.20;;;;;;;;;;5039762;28;20761;-82
2023/10/27 09:11:42;;;;;;;2.37;0.93;;;;;;;;;;4996354;28;20648;-81
2023/10/27 09:14:26;;;;;;;0.80;0.80;;;;;;;;;;5003722;28;20202;-81
2023/10/27 09:17:03;;;;;;;1.43;1.00;;;;;;;;;;4976914;28;20179;-81
2023/10/27 09:19:31;;;;;;;1.47;0.90;;;;;;;;;;5020847;28;20199;-82
2023/10/27 09:21:57;;;;;;;1.00;0.90;;;;;;;;;;5019736;28;20176;-82
2023/10/27 09:24:24;;;;;;;3.07;1.00;;;;;;;;;;5014152;28;20202;-81
2023/10/27 09:26:51;;;;;;;1.10;1.00;;;;;;;;;;5020586;28;20171;-81
2023/10/27 09:29:17;;;;;;;1.40;1.10;;;;;;;;;;4996431;28;20287;-81
2023/10/27 09:31:44;;;;;;;1.37;0.90;;;;;;;;;;4993061;28;20184;-81
2023/10/27 09:34:26;;;;;;;1.10;0.93;;;;;;;;;;5008130;28;20183;-82
2023/10/27 09:36:54;;;;;;;1.47;1.10;;;;;;;;;;5023674;28;20635;-81
2023/10/27 09:39:23;;;;;;;1.40;1.10;;;;;;;;;;5021226;28;20204;-82
2023/10/27 09:42:02;;;;;;;2.87;1.03;;;;;;;;;;5032993;28;20202;-81
2023/10/27 09:44:38;;;;;;;1.10;0.80;;;;;;;;;;5016355;28;20269;-82
2023/10/27 09:47:10;;;;;;;1.10;1.00;;;;;;;;;;5011618;28;20260;-82
2023/10/27 09:49:37;;;;;;;1.20;1.00;;;;;;;;;;5008527;28;20705;-81
2023/10/27 09:52:07;;;;;;;1.70;1.00;;;;;;;;;;4977986;28;20283;-81
2023/10/27 09:54:34;;;;;;;2.53;1.20;;;;;;;;;;4994992;28;20278;-80
2023/10/27 09:57:00;;;;;;;3.73;1.30;;;;;;;;;;5010177;28;20211;-81
2023/10/27 09:59:27;;;;;;;1.63;1.17;;;;;;;;;;5026731;28;20207;-84
2023/10/27 10:01:55;;;;;;;2.40;1.20;;;;;;;;;;5008132;28;20183;-79
2023/10/27 10:04:40;;;;;;;2.73;1.20;;;;;;;;;;5011415;28;20187;-80
2023/10/27 10:07:10;;;;;;;1.90;1.10;;;;;;;;;;5008635;28;20183;-81
2023/10/27 10:09:43;;;;;;;5.73;1.47;;;;;;;;;;5011012;28;20222;-79
2023/10/27 10:12:10;;;;;;;1.67;1.20;;;;;;;;;;5006028;28;20187;-80
2023/10/27 10:14:36;;;;;;;2.43;1.40;;;;;;;;;;5009938;28;20278;-80
2023/10/27 10:17:04;;;;;;;1.70;1.30;;;;;;;;;;5010901;28;20272;-78
2023/10/27 10:19:49;;;;;;;2.53;1.40;;;;;;;;;;5008094;28;20198;-80
2023/10/27 10:22:34;;;;;;;2.07;1.20;;;;;;;;;;5026348;28;20186;-79
2023/10/27 10:25:15;;;;;;;2.40;1.30;;;;;;;;;;5011746;28;20214;-79
2023/10/27 10:28:00;;;;;;;1.47;1.30;;;;;;;;;;5009871;28;20198;-80
2023/10/27 10:30:26;;;;;;;2.33;1.50;;;;;;;;;;5002039;28;20227;-80
2023/10/27 10:33:14;;;;;;;2.07;1.30;;;;;;;;;;5008675;28;20320;-81
2023/10/27 10:35:40;;;;;;;2.50;1.30;;;;;;;;;;5007940;28;20190;-80
2023/10/27 10:38:22;;;;;;;1.67;1.30;;;;;;;;;;5008754;28;20472;-79
2023/10/27 10:40:55;;;;;;;3.43;1.53;;;;;;;;;;5007540;28;20217;-80
2023/10/27 10:43:27;;;;;;;4.57;1.53;;;;;;;;;;5003649;28;20180;-79
2023/10/27 10:45:56;;;;;;;3.40;1.50;;;;;;;;;;5009165;28;20647;-78
2023/10/27 10:48:26;;;;;;;3.90;1.50;;;;;;;;;;5007688;28;20198;-79
2023/10/27 10:50:59;;;;;;;3.37;1.50;;;;;;;;;;5008421;28;20282;-79
2023/10/27 10:53:25;;;;;;;2.97;1.40;;;;;;;;;;5008691;28;20210;-78
2023/10/27 10:55:56;;;;;;;2.53;1.60;;;;;;;;;;5005213;28;20198;-80
2023/10/27 10:58:23;;;;;;;2.20;1.47;;;;;;;;;;5010432;28;20219;-80
2023/10/27 11:00:49;;;;;;;2.53;1.60;;;;;;;;;;5008000;28;20843;-80
2023/10/27 11:03:16;;;;;;;4.80;1.80;;;;;;;;;;5011184;28;20183;-79
2023/10/27 11:05:42;;;;;;;3.77;1.40;;;;;;;;;;5012554;28;20186;-78
2023/10/27 11:08:08;;;;;;;4.53;1.47;;;;;;;;;;5008490;28;20187;-78
2023/10/27 11:10:35;;;;;;;3.20;1.80;;;;;;;;;;5008302;28;20740;-79
2023/10/27 11:13:05;;;;;;;3.33;1.70;;;;;;;;;;5023710;28;20183;-78
2023/10/27 11:15:50;;;;;;;5.73;2.10;;;;;;;;;;5006380;28;20290;-78
2023/10/27 11:18:18;;;;;;;3.60;1.93;;;;;;;;;;5005957;28;20207;-78
2023/10/27 11:20:44;;;;;;;4.87;2.10;;;;;;;;;;5010936;28;20207;-78
2023/10/27 11:23:12;;;;;;;4.70;1.83;;;;;;;;;;5012928;28;20187;-78
2023/10/27 11:25:38;;;;;;;4.77;1.80;;;;;;;;;;5010566;28;20237;-79
2023/10/27 11:28:20;;;;;;;6.60;2.00;;;;;;;;;;5014135;28;20214;-78
2023/10/27 11:31:02;;;;;;;3.50;1.60;;;;;;;;;;5007592;28;20598;-78
2023/10/27 11:33:28;;;;;;;6.83;1.80;;;;;;;;;;5009403;28;20562;-79
2023/10/27 11:35:58;;;;;;;5.27;2.00;;;;;;;;;;5018532;28;20246;-78
2023/10/27 11:38:31;;;;;;;2.67;1.40;;;;;;;;;;5014145;28;20211;-78
2023/10/27 11:41:10;;;;;;;4.97;1.63;;;;;;;;;;5016798;28;20218;-78
2023/10/27 11:43:36;;;;;;;4.10;2.00;;;;;;;;;;5011170;28;20539;-78
2023/10/27 11:46:13;;;;;;;4.10;1.67;;;;;;;;;;5010638;28;20183;-78
2023/10/27 11:48:39;;;;;;;4.77;2.00;;;;;;;;;;5012705;28;20202;-78
2023/10/27 11:51:06;;;;;;;4.93;2.27;;;;;;;;;;5013117;28;20203;-78
2023/10/27 11:53:36;;;;;;;5.53;3.00;;;;;;;;;;5010545;28;20655;-78
2023/10/27 11:56:05;;;;;;;4.67;2.50;;;;;;;;;;5009520;28;20210;-79
2023/10/27 11:58:31;;;;;;;4.07;2.10;;;;;;;;;;5011115;28;20588;-78
2023/10/27 12:00:58;;;;;;;4.17;2.60;;;;;;;;;;5011431;28;20276;-78
2023/10/27 12:03:24;;;;;;;5.90;2.40;;;;;;;;;;5019322;28;20187;-78
2023/10/27 12:05:50;;;;;;;3.37;1.93;;;;;;;;;;5015925;28;20194;-79
2023/10/27 12:08:16;;;;;;;4.37;2.23;;;;;;;;;;5011053;28;20746;-79
2023/10/27 12:10:43;;;;;;;4.70;2.00;;;;;;;;;;5012270;28;20347;-78
2023/10/27 12:13:09;;;;;;;6.13;1.63;;;;;;;;;;5025969;28;20228;-78
2023/10/27 12:15:36;;;;;;;5.13;1.60;;;;;;;;;;5027073;28;20190;-78
2023/10/27 12:18:08;;;;;;;4.50;1.77;;;;;;;;;;5010882;28;20211;-78
2023/10/27 12:20:38;;;;;;;3.90;1.73;;;;;;;;;;5015598;28;20732;-78
2023/10/27 12:23:08;;;;;;;4.37;1.60;;;;;;;;;;4993225;28;21239;-80
2023/10/27 12:25:35;;;;;;;3.80;1.43;;;;;;;;;;5016065;28;20191;-79
2023/10/27 12:28:02;;;;;;;7.43;3.00;;;;;;;;;;5011826;28;20194;-79
2023/10/27 12:30:30;;;;;;;5.13;2.00;;;;;;;;;;5011630;28;20215;-79
2023/10/27 12:32:56;;;;;;;3.47;1.30;;;;;;;;;;5018023;28;20194;-78
2023/10/27 12:35:27;;;;;;;4.63;1.40;;;;;;;;;;5015215;28;20888;-79
2023/10/27 12:37:53;;;;;;;4.47;1.40;;;;;;;;;;5014968;28;20253;-79
2023/10/27 12:40:20;;;;;;;3.63;1.50;;;;;;;;;;4999165;28;20206;-79
2023/10/27 12:42:47;;;;;;;4.37;1.40;;;;;;;;;;5017525;28;20211;-79
2023/10/27 12:45:13;;;;;;;4.77;1.93;;;;;;;;;;5011560;28;20649;-79
2023/10/27 12:47:42;;;;;;;2.90;1.70;;;;;;;;;;5006729;28;20794;-79
2023/10/27 12:50:10;;;;;;;3.93;2.10;;;;;;;;;;5011122;28;20588;-79
2023/10/27 12:52:38;;;;;;;5.70;1.97;;;;;;;;;;5004009;28;20876;-79
2023/10/27 12:55:05;;;;;;;2.43;1.53;;;;;;;;;;5007316;28;20221;-80
2023/10/27 12:57:32;;;;;;;3.83;1.30;;;;;;;;;;5005396;28;20238;-79
2023/10/27 12:59:59;;;;;;;4.00;1.40;;;;;;;;;;5011184;28;20229;-79
2023/10/27 13:02:26;;;;;;;2.40;1.23;;;;;;;;;;5013597;28;20195;-80
2023/10/27 13:04:53;;;;;;;5.10;1.70;;;;;;;;;;5010543;28;20192;-78
2023/10/27 13:07:20;;;;;;;2.13;1.57;;;;;;;;;;5008435;28;20572;-79
2023/10/27 13:09:46;;;;;;;4.07;1.53;;;;;;;;;;5008800;28;20298;-79
2023/10/27 13:12:12;;;;;;;3.73;1.40;;;;;;;;;;4976292;28;20241;-79
2023/10/27 13:14:40;;;;;;;2.37;1.30;;;;;;;;;;5009279;28;20194;-80
2023/10/27 13:17:06;;;;;;;2.50;1.20;;;;;;;;;;5009827;28;20293;-79
2023/10/27 13:19:36;;;;;;;3.37;1.43;;;;;;;;;;5008565;28;20253;-80
2023/10/27 13:22:02;;;;;;;4.77;1.40;;;;;;;;;;5008974;28;20193;-79
2023/10/27 13:24:28;;;;;;;2.10;1.17;;;;;;;;;;5006329;28;20194;-79
2023/10/27 13:26:57;;;;;;;2.80;1.20;;;;;;;;;;5006923;28;20188;-80
2023/10/27 13:29:23;;;;;;;2.40;1.30;;;;;;;;;;5000070;28;20218;-79
2023/10/27 13:31:50;;;;;;;4.47;1.90;;;;;;;;;;5006529;28;20404;-80
2023/10/27 13:34:16;;;;;;;5.20;2.60;;;;;;;;;;5010608;28;20178;-80
2023/10/27 13:36:43;;;;;;;5.80;3.30;;;;;;;;;;5005456;28;20182;-80
2023/10/27 13:39:10;;;;;;;5.93;3.30;;;;;;;;;;5007269;28;20298;-79
2023/10/27 13:41:36;;;;;;;8.30;3.77;;;;;;;;;;5009561;28;20310;-80
2023/10/27 13:44:04;;;;;;;4.47;2.50;;;;;;;;;;5005826;28;20665;-80
2023/10/27 13:46:31;;;;;;;6.37;2.80;;;;;;;;;;5006982;28;20194;-79
2023/10/27 13:48:57;;;;;;;5.37;2.90;;;;;;;;;;4989020;28;20211;-79
2023/10/27 13:51:26;;;;;;;5.57;2.50;;;;;;;;;;5007931;28;20617;-80
2023/10/27 13:53:52;;;;;;;6.37;3.20;;;;;;;;;;5007390;28;21502;-80
2023/10/27 13:56:18;;;;;;;4.30;2.57;;;;;;;;;;5007275;28;20218;-80
2023/10/27 13:58:45;;;;;;;2.73;1.80;;;;;;;;;;5007940;28;20214;-79
2023/10/27 14:01:11;;;;;;;2.50;1.50;;;;;;;;;;5006619;28;20187;-80
2023/10/27 14:03:39;;;;;;;2.53;1.83;;;;;;;;;;5008508;28;20187;-80
2023/10/27 14:06:08;;;;;;;2.83;1.50;;;;;;;;;;5008314;28;20246;-80
2023/10/27 14:08:34;;;;;;;5.43;2.57;;;;;;;;;;5006365;28;20187;-80
2023/10/27 14:11:04;;;;;;;4.00;2.17;;;;;;;;;;5020652;28;20219;-80
2023/10/27 14:13:30;;;;;;;3.17;1.60;;;;;;;;;;5005965;28;20241;-80
2023/10/27 14:15:56;;;;;;;4.23;1.87;;;;;;;;;;5006946;28;20198;-80
2023/10/27 14:18:22;;;;;;;4.10;1.80;;;;;;;;;;5003360;28;20247;-80
2023/10/27 14:20:52;;;;;;;3.67;1.87;;;;;;;;;;5005191;28;20635;-79
2023/10/27 14:23:18;;;;;;;3.33;1.93;;;;;;;;;;5007593;28;20186;-79
2023/10/27 14:25:45;;;;;;;2.43;1.70;;;;;;;;;;5009436;28;20190;-78
2023/10/27 14:28:11;;;;;;;3.87;2.60;;;;;;;;;;5008699;28;20187;-79
2023/10/27 14:30:38;;;;;;;2.93;2.00;;;;;;;;;;5006517;28;20203;-78
2023/10/27 14:33:04;;;;;;;3.57;1.73;;;;;;;;;;5013423;28;20187;-79
2023/10/27 14:35:31;;;;;;;4.90;2.53;;;;;;;;;;5012043;28;20278;-79
2023/10/27 14:37:57;;;;;;;3.73;2.20;;;;;;;;;;5011131;28;20221;-79
2023/10/27 14:40:23;;;;;;;2.10;1.60;;;;;;;;;;5012527;28;20207;-78